sensor_id;sensor_type;location;lat;lon;timestamp;pressure;altitude;pressure_sealevel;temperature;humidity
41636;BME280;27623;51.966;4.602;2023-05-25T00:00:07;64534.47;;;13.49;80.41
41636;BME280;27623;51.966;4.602;2023-05-25T00:02:34;64562.91;;;13.61;80.68
41636;BME280;27623;51.966;4.602;2023-05-25T00:04:59;64544.53;;;13.46;81.04
41636;BME280;27623;51.966;4.602;2023-05-25T00:07:26;64550.91;;;13.50;81.15
41636;BME280;27623;51.966;4.602;2023-05-25T00:09:52;64569.94;;;13.51;81.74
41636;BME280;27623;51.966;4.602;2023-05-25T00:12:17;64526.34;;;13.58;81.50
41636;BME280;27623;51.966;4.602;2023-05-25T00:14:42;64564.41;;;13.53;81.75
41636;BME280;27623;51.966;4.602;2023-05-25T00:17:10;64539.19;;;13.51;81.54
41636;BME280;27623;51.966;4.602;2023-05-25T00:19:38;64543.81;;;13.43;81.90
41636;BME280;27623;51.966;4.602;2023-05-25T00:22:08;64504.88;;;13.43;82.11
41636;BME280;27623;51.966;4.602;2023-05-25T00:24:34;64539.59;;;13.49;82.11
41636;BME280;27623;51.966;4.602;2023-05-25T00:27:00;64537.25;;;13.37;82.50
41636;BME280;27623;51.966;4.602;2023-05-25T00:29:28;64524.09;;;13.39;83.02
41636;BME280;27623;51.966;4.602;2023-05-25T00:31:54;64507.91;;;13.26;83.01
41636;BME280;27623;51.966;4.602;2023-05-25T00:34:22;64556.91;;;13.24;83.91
41636;BME280;27623;51.966;4.602;2023-05-25T00:36:48;64517.75;;;13.28;84.14
41636;BME280;27623;51.966;4.602;2023-05-25T00:39:18;64519.16;;;13.34;84.60
41636;BME280;27623;51.966;4.602;2023-05-25T00:41:44;64531.66;;;13.29;84.82
41636;BME280;27623;51.966;4.602;2023-05-25T00:44:13;64470.84;;;13.16;86.44
41636;BME280;27623;51.966;4.602;2023-05-25T00:46:50;64520.09;;;13.33;86.19
41636;BME280;27623;51.966;4.602;2023-05-25T00:49:17;64514.78;;;13.37;86.21
41636;BME280;27623;51.966;4.602;2023-05-25T00:51:44;64550.38;;;13.49;86.23
41636;BME280;27623;51.966;4.602;2023-05-25T00:57:36;64506.13;;;13.46;86.78
41636;BME280;27623;51.966;4.602;2023-05-25T01:00:04;64537.16;;;13.51;87.21
41636;BME280;27623;51.966;4.602;2023-05-25T01:02:41;64557.53;;;13.41;87.66
41636;BME280;27623;51.966;4.602;2023-05-25T01:05:10;64562.81;;;13.44;87.29
41636;BME280;27623;51.966;4.602;2023-05-25T01:07:37;64569.69;;;13.55;86.80
41636;BME280;27623;51.966;4.602;2023-05-25T01:10:08;64574.28;;;13.55;85.97
41636;BME280;27623;51.966;4.602;2023-05-25T01:12:39;64538.31;;;13.45;86.96
41636;BME280;27623;51.966;4.602;2023-05-25T01:15:06;64522.44;;;13.37;87.23
41636;BME280;27623;51.966;4.602;2023-05-25T01:17:34;64540.25;;;13.28;87.90
41636;BME280;27623;51.966;4.602;2023-05-25T01:20:02;64531.69;;;13.22;88.26
41636;BME280;27623;51.966;4.602;2023-05-25T01:22:36;64522.91;;;13.21;87.94
41636;BME280;27623;51.966;4.602;2023-05-25T01:25:17;64509.00;;;13.27;87.94
41636;BME280;27623;51.966;4.602;2023-05-25T01:30:34;64553.38;;;13.33;86.87
41636;BME280;27623;51.966;4.602;2023-05-25T01:33:01;64541.16;;;13.26;87.27
41636;BME280;27623;51.966;4.602;2023-05-25T01:35:30;64511.59;;;13.13;87.75
41636;BME280;27623;51.966;4.602;2023-05-25T01:37:57;64506.25;;;13.25;87.23
41636;BME280;27623;51.966;4.602;2023-05-25T01:40:22;64500.28;;;13.12;87.62
41636;BME280;27623;51.966;4.602;2023-05-25T01:42:48;64505.00;;;13.14;88.05
41636;BME280;27623;51.966;4.602;2023-05-25T01:45:13;64510.00;;;13.04;88.20
41636;BME280;27623;51.966;4.602;2023-05-25T01:53:11;64492.34;;;12.93;88.92
41636;BME280;27623;51.966;4.602;2023-05-25T01:55:58;64469.50;;;12.95;88.86
41636;BME280;27623;51.966;4.602;2023-05-25T01:58:26;64471.69;;;12.90;88.08
41636;BME280;27623;51.966;4.602;2023-05-25T02:00:52;64448.03;;;12.80;89.40
41636;BME280;27623;51.966;4.602;2023-05-25T02:03:19;64465.91;;;12.80;89.46
41636;BME280;27623;51.966;4.602;2023-05-25T02:05:45;64436.91;;;12.74;89.89
41636;BME280;27623;51.966;4.602;2023-05-25T02:08:11;64439.44;;;12.82;89.04
41636;BME280;27623;51.966;4.602;2023-05-25T02:10:36;64452.00;;;12.86;89.20
41636;BME280;27623;51.966;4.602;2023-05-25T02:13:02;64460.13;;;12.70;90.15
41636;BME280;27623;51.966;4.602;2023-05-25T02:15:31;64451.31;;;12.76;90.31
41636;BME280;27623;51.966;4.602;2023-05-25T02:17:57;64468.50;;;12.73;89.91
41636;BME280;27623;51.966;4.602;2023-05-25T02:20:24;64457.94;;;12.68;91.38
41636;BME280;27623;51.966;4.602;2023-05-25T02:22:50;64481.25;;;12.80;90.63
41636;BME280;27623;51.966;4.602;2023-05-25T02:25:15;64465.88;;;12.87;90.40
41636;BME280;27623;51.966;4.602;2023-05-25T02:27:43;64485.41;;;12.89;90.53
41636;BME280;27623;51.966;4.602;2023-05-25T02:30:09;64487.59;;;12.91;91.22
41636;BME280;27623;51.966;4.602;2023-05-25T02:32:39;64513.72;;;12.91;91.47
41636;BME280;27623;51.966;4.602;2023-05-25T02:35:05;64486.72;;;12.85;92.38
41636;BME280;27623;51.966;4.602;2023-05-25T02:37:30;64462.03;;;12.91;92.62
41636;BME280;27623;51.966;4.602;2023-05-25T02:39:56;64495.59;;;12.96;92.65
41636;BME280;27623;51.966;4.602;2023-05-25T02:42:21;64474.78;;;12.98;93.09
41636;BME280;27623;51.966;4.602;2023-05-25T02:44:46;64475.19;;;12.89;93.81
41636;BME280;27623;51.966;4.602;2023-05-25T02:47:16;64460.56;;;12.92;94.73
41636;BME280;27623;51.966;4.602;2023-05-25T02:49:45;64510.63;;;12.91;95.04
41636;BME280;27623;51.966;4.602;2023-05-25T02:52:11;64484.47;;;12.97;95.55
41636;BME280;27623;51.966;4.602;2023-05-25T02:54:36;64487.75;;;12.93;96.27
41636;BME280;27623;51.966;4.602;2023-05-25T02:57:05;64470.75;;;12.99;96.18
41636;BME280;27623;51.966;4.602;2023-05-25T02:59:30;64486.72;;;12.85;96.74
41636;BME280;27623;51.966;4.602;2023-05-25T03:01:57;64486.50;;;12.90;95.91
41636;BME280;27623;51.966;4.602;2023-05-25T03:04:23;64507.69;;;12.93;95.40
41636;BME280;27623;51.966;4.602;2023-05-25T03:06:48;64521.53;;;13.01;94.34
41636;BME280;27623;51.966;4.602;2023-05-25T03:09:13;64496.22;;;12.82;94.86
41636;BME280;27623;51.966;4.602;2023-05-25T03:11:39;64439.63;;;12.77;94.83
41636;BME280;27623;51.966;4.602;2023-05-25T03:14:04;64477.97;;;12.84;93.95
41636;BME280;27623;51.966;4.602;2023-05-25T03:16:30;64449.84;;;12.84;93.55
41636;BME280;27623;51.966;4.602;2023-05-25T03:18:55;64448.53;;;12.88;92.90
41636;BME280;27623;51.966;4.602;2023-05-25T03:21:21;64473.06;;;12.72;92.80
41636;BME280;27623;51.966;4.602;2023-05-25T03:23:48;64427.09;;;12.65;93.16
41636;BME280;27623;51.966;4.602;2023-05-25T03:26:15;64439.63;;;12.46;94.53
41636;BME280;27623;51.966;4.602;2023-05-25T03:28:41;64480.66;;;12.56;94.28
41636;BME280;27623;51.966;4.602;2023-05-25T03:31:07;64436.09;;;12.55;93.79
41636;BME280;27623;51.966;4.602;2023-05-25T03:33:32;64448.00;;;12.49;94.02
41636;BME280;27623;51.966;4.602;2023-05-25T03:35:58;64467.66;;;12.60;92.84
41636;BME280;27623;51.966;4.602;2023-05-25T03:38:25;64466.31;;;12.71;91.71
41636;BME280;27623;51.966;4.602;2023-05-25T03:40:50;64466.88;;;12.71;91.55
41636;BME280;27623;51.966;4.602;2023-05-25T03:43:16;64415.84;;;12.50;92.20
41636;BME280;27623;51.966;4.602;2023-05-25T03:45:42;64418.69;;;12.31;93.68
41636;BME280;27623;51.966;4.602;2023-05-25T03:48:07;64437.13;;;12.32;94.43
41636;BME280;27623;51.966;4.602;2023-05-25T03:50:32;64404.09;;;12.34;94.33
41636;BME280;27623;51.966;4.602;2023-05-25T03:52:58;64400.63;;;12.29;94.03
41636;BME280;27623;51.966;4.602;2023-05-25T03:55:23;64406.13;;;12.27;94.33
41636;BME280;27623;51.966;4.602;2023-05-25T03:57:49;64431.41;;;12.46;93.11
41636;BME280;27623;51.966;4.602;2023-05-25T04:00:14;64436.03;;;12.31;93.83
41636;BME280;27623;51.966;4.602;2023-05-25T04:02:41;64458.28;;;12.35;93.80
41636;BME280;27623;51.966;4.602;2023-05-25T04:05:06;64416.81;;;12.42;93.39
41636;BME280;27623;51.966;4.602;2023-05-25T04:07:32;64437.31;;;12.34;93.72
41636;BME280;27623;51.966;4.602;2023-05-25T04:09:57;64391.22;;;12.18;94.13
41636;BME280;27623;51.966;4.602;2023-05-25T04:12:24;64456.06;;;12.40;93.53
41636;BME280;27623;51.966;4.602;2023-05-25T04:14:49;64403.91;;;12.32;93.31
41636;BME280;27623;51.966;4.602;2023-05-25T04:17:15;64403.19;;;12.29;94.48
41636;BME280;27623;51.966;4.602;2023-05-25T04:19:41;64434.22;;;12.27;94.88
41636;BME280;27623;51.966;4.602;2023-05-25T04:22:06;64389.31;;;12.28;95.03
41636;BME280;27623;51.966;4.602;2023-05-25T04:24:34;64464.97;;;12.51;93.34
41636;BME280;27623;51.966;4.602;2023-05-25T04:27:00;64457.34;;;12.44;93.63
41636;BME280;27623;51.966;4.602;2023-05-25T04:29:26;64414.63;;;12.47;93.53
41636;BME280;27623;51.966;4.602;2023-05-25T04:31:52;64453.63;;;12.57;92.54
41636;BME280;27623;51.966;4.602;2023-05-25T04:34:19;64481.75;;;12.57;92.67
41636;BME280;27623;51.966;4.602;2023-05-25T04:36:45;64447.94;;;12.25;94.37
41636;BME280;27623;51.966;4.602;2023-05-25T04:39:11;64423.84;;;12.24;95.74
41636;BME280;27623;51.966;4.602;2023-05-25T04:41:37;64406.00;;;12.17;95.75
41636;BME280;27623;51.966;4.602;2023-05-25T04:44:03;64444.03;;;12.36;95.97
41636;BME280;27623;51.966;4.602;2023-05-25T04:46:29;64440.19;;;12.39;95.17
41636;BME280;27623;51.966;4.602;2023-05-25T04:48:55;64414.44;;;12.44;94.56
41636;BME280;27623;51.966;4.602;2023-05-25T04:51:21;64437.31;;;12.34;95.66
41636;BME280;27623;51.966;4.602;2023-05-25T04:53:47;64391.56;;;12.23;97.02
41636;BME280;27623;51.966;4.602;2023-05-25T04:56:13;64404.59;;;12.42;96.82
41636;BME280;27623;51.966;4.602;2023-05-25T04:58:38;64454.03;;;12.48;96.39
41636;BME280;27623;51.966;4.602;2023-05-25T05:01:03;64428.13;;;12.43;96.79
41636;BME280;27623;51.966;4.602;2023-05-25T05:03:29;64440.16;;;12.47;97.33
41636;BME280;27623;51.966;4.602;2023-05-25T05:05:54;64456.75;;;12.50;98.05
41636;BME280;27623;51.966;4.602;2023-05-25T05:08:21;64452.16;;;12.58;97.48
41636;BME280;27623;51.966;4.602;2023-05-25T05:10:46;64470.59;;;12.58;98.46
41636;BME280;27623;51.966;4.602;2023-05-25T05:13:11;64468.59;;;12.59;98.93
41636;BME280;27623;51.966;4.602;2023-05-25T05:15:38;64461.47;;;12.59;98.96
41636;BME280;27623;51.966;4.602;2023-05-25T05:18:03;64448.88;;;12.55;99.52
41636;BME280;27623;51.966;4.602;2023-05-25T05:20:29;64431.34;;;12.60;99.80
41636;BME280;27623;51.966;4.602;2023-05-25T05:22:54;64455.94;;;12.68;99.11
41636;BME280;27623;51.966;4.602;2023-05-25T05:25:19;64483.84;;;12.73;99.23
41636;BME280;27623;51.966;4.602;2023-05-25T05:27:47;64491.19;;;12.68;99.28
41636;BME280;27623;51.966;4.602;2023-05-25T05:30:15;64450.13;;;12.65;99.62
41636;BME280;27623;51.966;4.602;2023-05-25T05:32:41;64471.44;;;12.71;99.51
41636;BME280;27623;51.966;4.602;2023-05-25T05:35:06;64460.09;;;12.77;99.16
41636;BME280;27623;51.966;4.602;2023-05-25T05:37:32;64483.56;;;12.92;98.72
41636;BME280;27623;51.966;4.602;2023-05-25T05:39:57;64512.75;;;13.07;97.83
41636;BME280;27623;51.966;4.602;2023-05-25T05:42:23;64493.03;;;13.03;97.60
41636;BME280;27623;51.966;4.602;2023-05-25T05:44:48;64539.44;;;13.01;97.38
41636;BME280;27623;51.966;4.602;2023-05-25T05:47:13;64490.50;;;12.96;98.11
41636;BME280;27623;51.966;4.602;2023-05-25T05:49:39;64519.38;;;12.92;98.58
41636;BME280;27623;51.966;4.602;2023-05-25T05:52:10;64514.59;;;12.97;98.73
41636;BME280;27623;51.966;4.602;2023-05-25T05:54:35;64488.69;;;12.92;98.63
41636;BME280;27623;51.966;4.602;2023-05-25T05:57:03;64479.53;;;12.93;98.83
41636;BME280;27623;51.966;4.602;2023-05-25T05:59:28;64520.28;;;12.97;98.66
41636;BME280;27623;51.966;4.602;2023-05-25T06:01:54;64491.03;;;12.96;98.73
41636;BME280;27623;51.966;4.602;2023-05-25T06:04:20;64516.41;;;13.01;98.55
41636;BME280;27623;51.966;4.602;2023-05-25T06:06:51;64527.19;;;13.01;98.85
41636;BME280;27623;51.966;4.602;2023-05-25T06:09:16;64478.59;;;13.01;98.71
41636;BME280;27623;51.966;4.602;2023-05-25T06:11:42;64529.94;;;13.04;98.76
41636;BME280;27623;51.966;4.602;2023-05-25T06:14:07;64523.34;;;13.05;99.31
41636;BME280;27623;51.966;4.602;2023-05-25T06:16:32;64505.81;;;13.03;99.37
41636;BME280;27623;51.966;4.602;2023-05-25T06:18:58;64495.75;;;13.05;99.53
41636;BME280;27623;51.966;4.602;2023-05-25T06:21:23;64535.59;;;13.04;100.00
41636;BME280;27623;51.966;4.602;2023-05-25T06:23:48;64507.09;;;12.99;99.96
41636;BME280;27623;51.966;4.602;2023-05-25T06:26:14;64549.66;;;13.08;99.86
41636;BME280;27623;51.966;4.602;2023-05-25T06:28:39;64507.41;;;13.12;99.89
41636;BME280;27623;51.966;4.602;2023-05-25T06:31:05;64547.25;;;13.11;99.15
41636;BME280;27623;51.966;4.602;2023-05-25T06:33:31;64537.19;;;13.13;99.03
41636;BME280;27623;51.966;4.602;2023-05-25T06:35:56;64509.78;;;13.16;99.19
41636;BME280;27623;51.966;4.602;2023-05-25T06:38:25;64522.72;;;13.26;99.04
41636;BME280;27623;51.966;4.602;2023-05-25T06:40:50;64563.66;;;13.26;99.04
41636;BME280;27623;51.966;4.602;2023-05-25T06:43:16;64551.72;;;13.31;99.04
41636;BME280;27623;51.966;4.602;2023-05-25T06:45:41;64555.59;;;13.28;97.65
41636;BME280;27623;51.966;4.602;2023-05-25T06:48:09;64578.59;;;13.35;97.56
41636;BME280;27623;51.966;4.602;2023-05-25T06:50:37;64575.81;;;13.39;97.11
41636;BME280;27623;51.966;4.602;2023-05-25T06:53:04;64571.59;;;13.45;97.12
41636;BME280;27623;51.966;4.602;2023-05-25T06:55:29;64566.09;;;13.47;96.76
41636;BME280;27623;51.966;4.602;2023-05-25T06:57:55;64565.19;;;13.49;96.88
41636;BME280;27623;51.966;4.602;2023-05-25T07:00:20;64603.16;;;13.58;95.93
41636;BME280;27623;51.966;4.602;2023-05-25T07:02:45;64598.72;;;13.68;95.23
41636;BME280;27623;51.966;4.602;2023-05-25T07:05:11;64584.66;;;13.64;94.43
41636;BME280;27623;51.966;4.602;2023-05-25T07:07:36;64610.94;;;13.74;94.34
41636;BME280;27623;51.966;4.602;2023-05-25T07:10:02;64615.50;;;13.74;94.50
41636;BME280;27623;51.966;4.602;2023-05-25T07:12:28;64629.00;;;13.84;94.61
41636;BME280;27623;51.966;4.602;2023-05-25T07:14:53;64585.56;;;13.94;94.64
41636;BME280;27623;51.966;4.602;2023-05-25T07:17:19;64619.56;;;14.04;94.06
41636;BME280;27623;51.966;4.602;2023-05-25T07:19:45;64617.72;;;14.07;94.72
41636;BME280;27623;51.966;4.602;2023-05-25T07:22:12;64688.16;;;14.10;93.17
41636;BME280;27623;51.966;4.602;2023-05-25T07:24:39;64640.78;;;14.07;92.40
41636;BME280;27623;51.966;4.602;2023-05-25T07:27:05;64644.22;;;14.13;93.28
41636;BME280;27623;51.966;4.602;2023-05-25T07:29:33;64636.56;;;14.05;91.06
41636;BME280;27623;51.966;4.602;2023-05-25T07:31:58;64644.97;;;14.08;90.34
41636;BME280;27623;51.966;4.602;2023-05-25T07:34:24;64643.50;;;14.09;90.42
41636;BME280;27623;51.966;4.602;2023-05-25T07:36:49;64626.88;;;14.06;90.59
41636;BME280;27623;51.966;4.602;2023-05-25T07:39:14;64654.31;;;14.10;90.62
41636;BME280;27623;51.966;4.602;2023-05-25T07:41:40;64639.31;;;14.08;89.54
41636;BME280;27623;51.966;4.602;2023-05-25T07:44:05;64658.13;;;14.14;89.90
41636;BME280;27623;51.966;4.602;2023-05-25T07:46:33;64637.22;;;14.16;89.31
41636;BME280;27623;51.966;4.602;2023-05-25T07:48:58;64693.56;;;14.30;88.75
41636;BME280;27623;51.966;4.602;2023-05-25T07:51:25;64660.94;;;14.33;88.18
41636;BME280;27623;51.966;4.602;2023-05-25T07:53:51;64679.81;;;14.31;88.58
41636;BME280;27623;51.966;4.602;2023-05-25T07:56:18;64668.41;;;14.37;88.49
41636;BME280;27623;51.966;4.602;2023-05-25T07:58:43;64720.50;;;14.57;88.29
41636;BME280;27623;51.966;4.602;2023-05-25T08:01:09;64691.88;;;14.66;88.50
41636;BME280;27623;51.966;4.602;2023-05-25T08:03:34;64718.19;;;14.76;87.65
41636;BME280;27623;51.966;4.602;2023-05-25T08:06:05;64741.00;;;14.95;85.91
41636;BME280;27623;51.966;4.602;2023-05-25T08:08:30;64792.28;;;15.02;84.60
41636;BME280;27623;51.966;4.602;2023-05-25T08:10:56;64741.63;;;15.12;83.02
41636;BME280;27623;51.966;4.602;2023-05-25T08:13:21;64780.44;;;15.18;84.03
41636;BME280;27623;51.966;4.602;2023-05-25T08:15:47;64801.28;;;15.30;85.20
41636;BME280;27623;51.966;4.602;2023-05-25T08:18:14;64762.97;;;15.25;83.58
41636;BME280;27623;51.966;4.602;2023-05-25T08:20:39;64793.47;;;15.44;85.06
41636;BME280;27623;51.966;4.602;2023-05-25T08:23:05;64839.41;;;15.70;81.93
41636;BME280;27623;51.966;4.602;2023-05-25T08:25:30;64866.25;;;15.88;81.51
41636;BME280;27623;51.966;4.602;2023-05-25T08:27:56;64847.72;;;15.87;78.80
41636;BME280;27623;51.966;4.602;2023-05-25T08:30:21;64902.66;;;16.09;81.36
41636;BME280;27623;51.966;4.602;2023-05-25T08:32:47;64874.75;;;16.31;80.38
41636;BME280;27623;51.966;4.602;2023-05-25T08:35:12;64977.88;;;16.50;78.08
41636;BME280;27623;51.966;4.602;2023-05-25T08:37:41;64964.75;;;16.62;76.16
41636;BME280;27623;51.966;4.602;2023-05-25T08:40:13;64947.31;;;16.87;76.53
41636;BME280;27623;51.966;4.602;2023-05-25T08:42:41;65025.81;;;17.14;77.47
41636;BME280;27623;51.966;4.602;2023-05-25T08:45:07;64995.34;;;17.05;75.63
41636;BME280;27623;51.966;4.602;2023-05-25T08:47:39;64978.91;;;16.90;75.62
41636;BME280;27623;51.966;4.602;2023-05-25T08:50:06;64943.78;;;16.64;76.34
41636;BME280;27623;51.966;4.602;2023-05-25T08:52:33;64963.03;;;16.44;77.17
41636;BME280;27623;51.966;4.602;2023-05-25T08:55:03;64934.72;;;16.20;76.70
41636;BME280;27623;51.966;4.602;2023-05-25T08:57:42;64912.56;;;16.11;75.20
41636;BME280;27623;51.966;4.602;2023-05-25T09:00:13;64869.44;;;16.05;75.95
41636;BME280;27623;51.966;4.602;2023-05-25T09:05:12;64895.91;;;16.01;76.51
41636;BME280;27623;51.966;4.602;2023-05-25T09:07:37;64876.59;;;16.04;77.01
41636;BME280;27623;51.966;4.602;2023-05-25T09:10:03;64923.75;;;16.10;77.35
41636;BME280;27623;51.966;4.602;2023-05-25T09:12:29;64939.53;;;16.15;77.61
41636;BME280;27623;51.966;4.602;2023-05-25T09:14:56;64873.06;;;16.13;77.59
41636;BME280;27623;51.966;4.602;2023-05-25T09:17:25;64871.59;;;16.14;77.51
41636;BME280;27623;51.966;4.602;2023-05-25T09:19:54;64888.50;;;16.13;76.62
41636;BME280;27623;51.966;4.602;2023-05-25T09:22:20;64886.88;;;16.04;74.60
41636;BME280;27623;51.966;4.602;2023-05-25T09:24:45;64890.75;;;16.01;74.90
41636;BME280;27623;51.966;4.602;2023-05-25T09:27:12;64898.81;;;16.06;75.85
41636;BME280;27623;51.966;4.602;2023-05-25T09:29:41;64922.81;;;16.19;76.24
41636;BME280;27623;51.966;4.602;2023-05-25T09:32:06;64910.59;;;16.29;76.58
41636;BME280;27623;51.966;4.602;2023-05-25T09:34:32;64958.50;;;16.37;76.54
41636;BME280;27623;51.966;4.602;2023-05-25T09:37:10;64925.22;;;16.40;76.22
41636;BME280;27623;51.966;4.602;2023-05-25T09:39:36;64975.03;;;16.38;76.74
41636;BME280;27623;51.966;4.602;2023-05-25T09:42:01;64930.06;;;16.28;76.64
41636;BME280;27623;51.966;4.602;2023-05-25T09:44:27;64923.63;;;16.31;76.98
41636;BME280;27623;51.966;4.602;2023-05-25T09:46:53;64939.84;;;16.51;75.92
41636;BME280;27623;51.966;4.602;2023-05-25T09:49:18;64964.22;;;16.62;73.83
41636;BME280;27623;51.966;4.602;2023-05-25T09:51:44;64971.00;;;16.63;72.58
41636;BME280;27623;51.966;4.602;2023-05-25T09:54:10;64986.25;;;16.68;72.22
41636;BME280;27623;51.966;4.602;2023-05-25T09:56:35;64956.25;;;16.73;71.34
41636;BME280;27623;51.966;4.602;2023-05-25T09:59:02;64929.63;;;16.68;71.98
41636;BME280;27623;51.966;4.602;2023-05-25T10:01:27;64984.41;;;16.64;72.67
41636;BME280;27623;51.966;4.602;2023-05-25T10:03:53;64954.91;;;16.53;71.77
41636;BME280;27623;51.966;4.602;2023-05-25T10:06:24;64933.75;;;16.53;72.65
41636;BME280;27623;51.966;4.602;2023-05-25T10:08:51;64982.63;;;16.83;72.22
41636;BME280;27623;51.966;4.602;2023-05-25T10:11:18;65015.56;;;17.31;72.66
41636;BME280;27623;51.966;4.602;2023-05-25T10:13:45;65109.91;;;17.70;70.18
41636;BME280;27623;51.966;4.602;2023-05-25T10:16:14;65130.69;;;17.97;65.39
41636;BME280;27623;51.966;4.602;2023-05-25T10:18:47;65141.75;;;18.40;62.86
41636;BME280;27623;51.966;4.602;2023-05-25T10:21:17;65214.25;;;18.60;62.39
41636;BME280;27623;51.966;4.602;2023-05-25T10:23:45;65243.91;;;18.87;61.96
41636;BME280;27623;51.966;4.602;2023-05-25T10:26:17;65254.72;;;18.95;59.37
41636;BME280;27623;51.966;4.602;2023-05-25T10:28:47;65296.06;;;19.18;57.20
41636;BME280;27623;51.966;4.602;2023-05-25T10:31:17;65354.56;;;19.68;58.66
41636;BME280;27623;51.966;4.602;2023-05-25T10:33:43;65330.19;;;19.67;54.58
41636;BME280;27623;51.966;4.602;2023-05-25T10:36:09;65348.91;;;19.60;54.76
41636;BME280;27623;51.966;4.602;2023-05-25T10:38:40;65312.47;;;19.41;54.84
41636;BME280;27623;51.966;4.602;2023-05-25T10:41:09;65264.72;;;19.13;56.21
41636;BME280;27623;51.966;4.602;2023-05-25T10:43:36;65250.28;;;18.98;57.58
41636;BME280;27623;51.966;4.602;2023-05-25T10:46:04;65246.88;;;18.85;57.50
41636;BME280;27623;51.966;4.602;2023-05-25T10:48:44;65230.97;;;18.70;57.23
41636;BME280;27623;51.966;4.602;2023-05-25T10:51:10;65263.91;;;19.01;57.88
41636;BME280;27623;51.966;4.602;2023-05-25T10:53:42;65314.19;;;19.35;58.11
41636;BME280;27623;51.966;4.602;2023-05-25T10:56:09;65317.59;;;19.48;56.72
41636;BME280;27623;51.966;4.602;2023-05-25T10:58:41;65345.75;;;19.36;57.07
41636;BME280;27623;51.966;4.602;2023-05-25T11:01:11;65305.50;;;19.37;57.90
41636;BME280;27623;51.966;4.602;2023-05-25T11:06:19;65295.53;;;19.35;58.51
41636;BME280;27623;51.966;4.602;2023-05-25T11:08:58;65304.78;;;19.34;58.42
41636;BME280;27623;51.966;4.602;2023-05-25T11:14:26;65285.28;;;19.28;58.39
41636;BME280;27623;51.966;4.602;2023-05-25T11:17:12;65310.63;;;19.20;58.52
41636;BME280;27623;51.966;4.602;2023-05-25T11:22:31;65248.41;;;19.01;58.54
41636;BME280;27623;51.966;4.602;2023-05-25T11:24:58;65264.03;;;19.10;59.44
41636;BME280;27623;51.966;4.602;2023-05-25T11:27:31;65251.94;;;18.99;60.16
41636;BME280;27623;51.966;4.602;2023-05-25T11:29:58;65242.84;;;19.03;60.54
41636;BME280;27623;51.966;4.602;2023-05-25T11:32:24;65272.59;;;18.99;60.23
41636;BME280;27623;51.966;4.602;2023-05-25T11:34:51;65244.19;;;18.99;60.56
41636;BME280;27623;51.966;4.602;2023-05-25T11:37:19;65269.50;;;18.92;60.34
41636;BME280;27623;51.966;4.602;2023-05-25T11:39:49;65244.53;;;18.80;60.38
41636;BME280;27623;51.966;4.602;2023-05-25T11:42:16;65188.22;;;18.64;61.50
41636;BME280;27623;51.966;4.602;2023-05-25T11:44:41;65211.16;;;18.52;60.82
41636;BME280;27623;51.966;4.602;2023-05-25T11:47:11;65191.50;;;18.43;61.66
41636;BME280;27623;51.966;4.602;2023-05-25T11:49:44;65158.34;;;18.41;61.67
41636;BME280;27623;51.966;4.602;2023-05-25T11:52:15;65161.84;;;18.40;61.58
41636;BME280;27623;51.966;4.602;2023-05-25T11:54:41;65194.97;;;18.49;61.52
41636;BME280;27623;51.966;4.602;2023-05-25T11:57:18;65170.53;;;18.38;61.20
41636;BME280;27623;51.966;4.602;2023-05-25T11:59:51;65196.00;;;18.33;61.59
41636;BME280;27623;51.966;4.602;2023-05-25T12:02:18;65160.75;;;18.39;61.21
41636;BME280;27623;51.966;4.602;2023-05-25T12:04:59;65181.19;;;18.43;60.42
41636;BME280;27623;51.966;4.602;2023-05-25T12:07:29;65170.09;;;18.47;60.43
41636;BME280;27623;51.966;4.602;2023-05-25T12:10:11;65199.13;;;18.58;59.41
41636;BME280;27623;51.966;4.602;2023-05-25T12:12:47;65195.06;;;18.59;60.48
41636;BME280;27623;51.966;4.602;2023-05-25T12:15:22;65214.25;;;18.60;61.23
41636;BME280;27623;51.966;4.602;2023-05-25T12:17:49;65239.53;;;18.59;61.25
41636;BME280;27623;51.966;4.602;2023-05-25T12:20:16;65208.50;;;18.66;60.43
41636;BME280;27623;51.966;4.602;2023-05-25T12:22:42;65221.25;;;18.64;60.58
41636;BME280;27623;51.966;4.602;2023-05-25T12:25:09;65208.72;;;18.62;62.08
41636;BME280;27623;51.966;4.602;2023-05-25T12:27:36;65210.06;;;18.75;61.80
41636;BME280;27623;51.966;4.602;2023-05-25T12:30:03;65228.84;;;18.78;60.95
41636;BME280;27623;51.966;4.602;2023-05-25T12:32:31;65227.88;;;18.86;60.88
41636;BME280;27623;51.966;4.602;2023-05-25T12:35:04;65222.78;;;18.96;60.11
41636;BME280;27623;51.966;4.602;2023-05-25T12:37:32;65269.06;;;19.01;58.79
41636;BME280;27623;51.966;4.602;2023-05-25T12:39:58;65252.41;;;19.07;58.55
41636;BME280;27623;51.966;4.602;2023-05-25T12:42:24;65270.28;;;19.11;57.46
41636;BME280;27623;51.966;4.602;2023-05-25T12:44:56;65314.19;;;19.35;57.32
41636;BME280;27623;51.966;4.602;2023-05-25T12:47:26;65355.69;;;19.85;56.80
41636;BME280;27623;51.966;4.602;2023-05-25T12:50:14;65432.19;;;20.08;54.61
41636;BME280;27623;51.966;4.602;2023-05-25T12:52:44;65368.34;;;19.97;54.25
41636;BME280;27623;51.966;4.602;2023-05-25T12:55:24;65406.28;;;19.92;54.34
41636;BME280;27623;51.966;4.602;2023-05-25T12:57:54;65379.59;;;19.79;54.34
41636;BME280;27623;51.966;4.602;2023-05-25T13:00:27;65318.19;;;19.65;54.54
41636;BME280;27623;51.966;4.602;2023-05-25T13:02:55;65316.72;;;19.42;55.47
41636;BME280;27623;51.966;4.602;2023-05-25T13:05:28;65323.81;;;19.56;55.54
41636;BME280;27623;51.966;4.602;2023-05-25T13:07:55;65335.16;;;19.47;55.60
41636;BME280;27623;51.966;4.602;2023-05-25T13:10:21;65329.91;;;19.54;56.36
41636;BME280;27623;51.966;4.602;2023-05-25T13:12:47;65305.66;;;19.39;55.81
41636;BME280;27623;51.966;4.602;2023-05-25T13:15:14;65274.56;;;19.30;55.89
41636;BME280;27623;51.966;4.602;2023-05-25T13:17:41;65303.16;;;19.32;55.88
41636;BME280;27623;51.966;4.602;2023-05-25T13:20:10;65333.72;;;19.41;55.07
41636;BME280;27623;51.966;4.602;2023-05-25T13:22:36;65308.78;;;19.40;55.29